sensor_id;sensor_type;location;lat;lon;timestamp;P1;durP1;ratioP1;P2;durP2;ratioP2
4569;SDS011;2297;51.442;6.996;2023-12-29T00:02:05;5.43;;;1.85;;
4569;SDS011;2297;51.442;6.996;2023-12-29T00:04:31;8.20;;;1.60;;
4569;SDS011;2297;51.442;6.996;2023-12-29T00:06:59;8.07;;;1.80;;
4569;SDS011;2297;51.442;6.996;2023-12-29T00:09:27;8.05;;;2.00;;
4569;SDS011;2297;51.442;6.996;2023-12-29T00:11:53;8.38;;;2.10;;
4569;SDS011;2297;51.442;6.996;2023-12-29T00:14:20;10.20;;;1.80;;
4569;SDS011;2297;51.442;6.996;2023-12-29T00:16:47;6.32;;;2.08;;
4569;SDS011;2297;51.442;6.996;2023-12-29T00:19:14;10.18;;;2.08;;
4569;SDS011;2297;51.442;6.996;2023-12-29T00:21:40;6.40;;;1.92;;
4569;SDS011;2297;51.442;6.996;2023-12-29T00:24:08;5.32;;;1.63;;
4569;SDS011;2297;51.442;6.996;2023-12-29T00:26:35;5.80;;;2.00;;
4569;SDS011;2297;51.442;6.996;2023-12-29T00:29:02;5.85;;;1.77;;
4569;SDS011;2297;51.442;6.996;2023-12-29T00:31:28;6.20;;;2.00;;
4569;SDS011;2297;51.442;6.996;2023-12-29T00:33:55;6.22;;;1.40;;
4569;SDS011;2297;51.442;6.996;2023-12-29T00:36:21;5.78;;;1.73;;
4569;SDS011;2297;51.442;6.996;2023-12-29T00:38:48;9.63;;;1.77;;
4569;SDS011;2297;51.442;6.996;2023-12-29T00:41:16;5.13;;;1.42;;
4569;SDS011;2297;51.442;6.996;2023-12-29T00:43:43;7.55;;;2.35;;
4569;SDS011;2297;51.442;6.996;2023-12-29T00:46:09;5.45;;;1.75;;
4569;SDS011;2297;51.442;6.996;2023-12-29T00:48:36;7.78;;;1.67;;
4569;SDS011;2297;51.442;6.996;2023-12-29T00:51:03;6.15;;;1.50;;
4569;SDS011;2297;51.442;6.996;2023-12-29T00:53:30;3.20;;;1.48;;
4569;SDS011;2297;51.442;6.996;2023-12-29T00:55:57;5.90;;;1.75;;
4569;SDS011;2297;51.442;6.996;2023-12-29T00:58:25;6.82;;;1.80;;
4569;SDS011;2297;51.442;6.996;2023-12-29T01:00:52;5.78;;;2.13;;
4569;SDS011;2297;51.442;6.996;2023-12-29T01:03:19;7.25;;;1.52;;
4569;SDS011;2297;51.442;6.996;2023-12-29T01:05:46;8.45;;;1.75;;
4569;SDS011;2297;51.442;6.996;2023-12-29T01:08:13;4.82;;;1.50;;
4569;SDS011;2297;51.442;6.996;2023-12-29T01:10:39;4.82;;;1.80;;
4569;SDS011;2297;51.442;6.996;2023-12-29T01:13:06;8.25;;;1.80;;
4569;SDS011;2297;51.442;6.996;2023-12-29T01:15:34;4.45;;;1.40;;
4569;SDS011;2297;51.442;6.996;2023-12-29T01:18:01;4.82;;;1.60;;
4569;SDS011;2297;51.442;6.996;2023-12-29T01:20:27;8.43;;;2.25;;
4569;SDS011;2297;51.442;6.996;2023-12-29T01:22:54;4.20;;;1.70;;
4569;SDS011;2297;51.442;6.996;2023-12-29T01:25:20;5.97;;;1.92;;
4569;SDS011;2297;51.442;6.996;2023-12-29T01:27:49;7.72;;;1.60;;
4569;SDS011;2297;51.442;6.996;2023-12-29T01:30:15;9.95;;;1.80;;
4569;SDS011;2297;51.442;6.996;2023-12-29T01:32:43;7.85;;;1.60;;
4569;SDS011;2297;51.442;6.996;2023-12-29T01:35:10;5.88;;;2.00;;
4569;SDS011;2297;51.442;6.996;2023-12-29T01:37:37;6.07;;;1.60;;
4569;SDS011;2297;51.442;6.996;2023-12-29T01:40:04;5.53;;;1.60;;
4569;SDS011;2297;51.442;6.996;2023-12-29T01:42:31;6.88;;;1.67;;
4569;SDS011;2297;51.442;6.996;2023-12-29T01:44:58;6.72;;;1.45;;
4569;SDS011;2297;51.442;6.996;2023-12-29T01:47:26;4.25;;;1.52;;
4569;SDS011;2297;51.442;6.996;2023-12-29T01:49:55;9.85;;;1.92;;
4569;SDS011;2297;51.442;6.996;2023-12-29T01:52:22;6.63;;;1.60;;
4569;SDS011;2297;51.442;6.996;2023-12-29T01:54:49;4.93;;;1.75;;
4569;SDS011;2297;51.442;6.996;2023-12-29T01:57:18;8.55;;;2.30;;
4569;SDS011;2297;51.442;6.996;2023-12-29T01:59:45;6.38;;;1.85;;
4569;SDS011;2297;51.442;6.996;2023-12-29T02:02:14;8.75;;;1.90;;
4569;SDS011;2297;51.442;6.996;2023-12-29T02:04:41;7.32;;;2.00;;
4569;SDS011;2297;51.442;6.996;2023-12-29T02:07:10;5.63;;;2.00;;
4569;SDS011;2297;51.442;6.996;2023-12-29T02:09:36;8.40;;;2.00;;
4569;SDS011;2297;51.442;6.996;2023-12-29T02:12:04;9.45;;;2.28;;
4569;SDS011;2297;51.442;6.996;2023-12-29T02:14:31;7.50;;;1.90;;
4569;SDS011;2297;51.442;6.996;2023-12-29T02:17:00;9.15;;;2.20;;
4569;SDS011;2297;51.442;6.996;2023-12-29T02:19:38;8.05;;;1.70;;
4569;SDS011;2297;51.442;6.996;2023-12-29T02:24:35;8.50;;;2.35;;
4569;SDS011;2297;51.442;6.996;2023-12-29T02:27:07;9.63;;;2.30;;
4569;SDS011;2297;51.442;6.996;2023-12-29T02:29:43;7.75;;;2.38;;
4569;SDS011;2297;51.442;6.996;2023-12-29T02:32:16;7.70;;;2.05;;
4569;SDS011;2297;51.442;6.996;2023-12-29T02:34:45;12.02;;;2.58;;
4569;SDS011;2297;51.442;6.996;2023-12-29T02:37:16;5.82;;;2.00;;
4569;SDS011;2297;51.442;6.996;2023-12-29T02:39:44;5.70;;;2.10;;
4569;SDS011;2297;51.442;6.996;2023-12-29T02:42:12;7.72;;;2.35;;
4569;SDS011;2297;51.442;6.996;2023-12-29T02:44:38;10.43;;;2.42;;
4569;SDS011;2297;51.442;6.996;2023-12-29T02:47:05;10.40;;;2.47;;
4569;SDS011;2297;51.442;6.996;2023-12-29T02:49:32;6.85;;;1.80;;
4569;SDS011;2297;51.442;6.996;2023-12-29T02:51:58;11.88;;;2.60;;
4569;SDS011;2297;51.442;6.996;2023-12-29T02:54:25;8.88;;;2.42;;
4569;SDS011;2297;51.442;6.996;2023-12-29T02:56:51;9.27;;;2.55;;
4569;SDS011;2297;51.442;6.996;2023-12-29T02:59:19;6.18;;;2.13;;
4569;SDS011;2297;51.442;6.996;2023-12-29T03:01:46;10.73;;;2.45;;
4569;SDS011;2297;51.442;6.996;2023-12-29T03:04:13;10.65;;;2.28;;
4569;SDS011;2297;51.442;6.996;2023-12-29T03:06:40;7.93;;;2.05;;
4569;SDS011;2297;51.442;6.996;2023-12-29T03:09:07;4.90;;;2.10;;
4569;SDS011;2297;51.442;6.996;2023-12-29T03:11:33;4.97;;;2.10;;
4569;SDS011;2297;51.442;6.996;2023-12-29T03:14:00;6.07;;;2.00;;
4569;SDS011;2297;51.442;6.996;2023-12-29T03:16:28;7.32;;;2.15;;
4569;SDS011;2297;51.442;6.996;2023-12-29T03:18:54;6.07;;;2.00;;
4569;SDS011;2297;51.442;6.996;2023-12-29T03:21:21;5.53;;;2.00;;
4569;SDS011;2297;51.442;6.996;2023-12-29T03:23:48;8.85;;;2.42;;
4569;SDS011;2297;51.442;6.996;2023-12-29T03:26:15;4.75;;;1.60;;
4569;SDS011;2297;51.442;6.996;2023-12-29T03:28:41;10.13;;;2.20;;
4569;SDS011;2297;51.442;6.996;2023-12-29T03:31:08;9.93;;;2.40;;
4569;SDS011;2297;51.442;6.996;2023-12-29T03:33:36;5.00;;;2.05;;
4569;SDS011;2297;51.442;6.996;2023-12-29T03:36:03;7.22;;;2.38;;
4569;SDS011;2297;51.442;6.996;2023-12-29T03:38:30;10.40;;;2.35;;
4569;SDS011;2297;51.442;6.996;2023-12-29T03:40:58;9.63;;;2.13;;
4569;SDS011;2297;51.442;6.996;2023-12-29T03:43:25;7.70;;;2.35;;
4569;SDS011;2297;51.442;6.996;2023-12-29T03:45:51;11.63;;;2.20;;
4569;SDS011;2297;51.442;6.996;2023-12-29T03:48:18;5.35;;;1.80;;
4569;SDS011;2297;51.442;6.996;2023-12-29T03:50:46;5.20;;;1.98;;
4569;SDS011;2297;51.442;6.996;2023-12-29T03:53:12;12.15;;;2.75;;
4569;SDS011;2297;51.442;6.996;2023-12-29T03:55:40;6.68;;;2.15;;
4569;SDS011;2297;51.442;6.996;2023-12-29T03:58:06;7.55;;;2.10;;
4569;SDS011;2297;51.442;6.996;2023-12-29T04:00:33;9.20;;;2.47;;
4569;SDS011;2297;51.442;6.996;2023-12-29T04:03:00;5.28;;;2.33;;
4569;SDS011;2297;51.442;6.996;2023-12-29T04:08:13;9.93;;;1.90;;
4569;SDS011;2297;51.442;6.996;2023-12-29T04:10:40;8.45;;;2.83;;
4569;SDS011;2297;51.442;6.996;2023-12-29T04:13:06;9.98;;;1.95;;
4569;SDS011;2297;51.442;6.996;2023-12-29T04:15:33;8.35;;;2.03;;
4569;SDS011;2297;51.442;6.996;2023-12-29T04:17:59;7.57;;;2.00;;
4569;SDS011;2297;51.442;6.996;2023-12-29T04:20:26;7.40;;;2.28;;
4569;SDS011;2297;51.442;6.996;2023-12-29T04:22:54;8.35;;;2.13;;
4569;SDS011;2297;51.442;6.996;2023-12-29T04:25:21;7.82;;;2.65;;
4569;SDS011;2297;51.442;6.996;2023-12-29T04:27:47;8.35;;;2.47;;
4569;SDS011;2297;51.442;6.996;2023-12-29T04:30:14;4.75;;;1.85;;
4569;SDS011;2297;51.442;6.996;2023-12-29T04:32:41;7.38;;;2.00;;
4569;SDS011;2297;51.442;6.996;2023-12-29T04:35:07;6.85;;;2.70;;
4569;SDS011;2297;51.442;6.996;2023-12-29T04:37:37;6.28;;;2.08;;
4569;SDS011;2297;51.442;6.996;2023-12-29T04:40:05;5.03;;;1.80;;
4569;SDS011;2297;51.442;6.996;2023-12-29T04:42:33;6.32;;;1.73;;
4569;SDS011;2297;51.442;6.996;2023-12-29T04:44:59;7.88;;;2.20;;
4569;SDS011;2297;51.442;6.996;2023-12-29T04:47:26;5.72;;;1.58;;
4569;SDS011;2297;51.442;6.996;2023-12-29T04:49:52;8.55;;;2.22;;
4569;SDS011;2297;51.442;6.996;2023-12-29T04:52:19;9.85;;;2.03;;
4569;SDS011;2297;51.442;6.996;2023-12-29T04:54:46;8.00;;;2.40;;
4569;SDS011;2297;51.442;6.996;2023-12-29T04:57:14;5.78;;;1.92;;
4569;SDS011;2297;51.442;6.996;2023-12-29T04:59:40;6.65;;;2.25;;
4569;SDS011;2297;51.442;6.996;2023-12-29T05:02:07;8.40;;;1.70;;
4569;SDS011;2297;51.442;6.996;2023-12-29T05:04:34;3.92;;;1.80;;
4569;SDS011;2297;51.442;6.996;2023-12-29T05:07:00;6.15;;;1.75;;
4569;SDS011;2297;51.442;6.996;2023-12-29T05:09:27;9.13;;;1.98;;
4569;SDS011;2297;51.442;6.996;2023-12-29T05:11:53;8.07;;;1.85;;
4569;SDS011;2297;51.442;6.996;2023-12-29T05:14:21;11.88;;;3.03;;
4569;SDS011;2297;51.442;6.996;2023-12-29T05:16:51;7.13;;;2.38;;
4569;SDS011;2297;51.442;6.996;2023-12-29T05:19:17;6.38;;;1.70;;
4569;SDS011;2297;51.442;6.996;2023-12-29T05:21:44;5.88;;;1.90;;
4569;SDS011;2297;51.442;6.996;2023-12-29T05:24:11;6.70;;;1.80;;
4569;SDS011;2297;51.442;6.996;2023-12-29T05:26:37;5.35;;;1.67;;
4569;SDS011;2297;51.442;6.996;2023-12-29T05:29:04;6.72;;;1.55;;
4569;SDS011;2297;51.442;6.996;2023-12-29T05:31:32;8.07;;;2.30;;
4569;SDS011;2297;51.442;6.996;2023-12-29T05:33:58;5.88;;;1.70;;
4569;SDS011;2297;51.442;6.996;2023-12-29T05:36:25;6.72;;;1.85;;
4569;SDS011;2297;51.442;6.996;2023-12-29T05:38:52;9.10;;;1.98;;
4569;SDS011;2297;51.442;6.996;2023-12-29T05:41:18;9.55;;;2.28;;
4569;SDS011;2297;51.442;6.996;2023-12-29T05:43:45;9.45;;;1.70;;
4569;SDS011;2297;51.442;6.996;2023-12-29T05:46:12;10.77;;;1.90;;
4569;SDS011;2297;51.442;6.996;2023-12-29T05:48:40;5.43;;;2.00;;
4569;SDS011;2297;51.442;6.996;2023-12-29T05:51:07;11.07;;;2.00;;
4569;SDS011;2297;51.442;6.996;2023-12-29T05:53:35;5.07;;;1.77;;
4569;SDS011;2297;51.442;6.996;2023-12-29T05:56:02;10.63;;;2.13;;
4569;SDS011;2297;51.442;6.996;2023-12-29T05:58:29;13.75;;;2.25;;
4569;SDS011;2297;51.442;6.996;2023-12-29T06:00:55;8.02;;;2.00;;
4569;SDS011;2297;51.442;6.996;2023-12-29T06:03:23;6.70;;;1.90;;
4569;SDS011;2297;51.442;6.996;2023-12-29T06:05:51;6.90;;;1.77;;
4569;SDS011;2297;51.442;6.996;2023-12-29T06:08:18;10.27;;;2.22;;
4569;SDS011;2297;51.442;6.996;2023-12-29T06:10:44;5.95;;;2.22;;
4569;SDS011;2297;51.442;6.996;2023-12-29T06:13:11;6.10;;;1.77;;
4569;SDS011;2297;51.442;6.996;2023-12-29T06:15:38;13.77;;;2.20;;
4569;SDS011;2297;51.442;6.996;2023-12-29T06:18:04;8.25;;;1.80;;
4569;SDS011;2297;51.442;6.996;2023-12-29T06:20:31;8.02;;;1.80;;
4569;SDS011;2297;51.442;6.996;2023-12-29T06:22:59;6.68;;;1.77;;
4569;SDS011;2297;51.442;6.996;2023-12-29T06:25:26;6.78;;;2.00;;
4569;SDS011;2297;51.442;6.996;2023-12-29T06:31:16;12.10;;;2.42;;
4569;SDS011;2297;51.442;6.996;2023-12-29T06:33:43;9.13;;;1.90;;
4569;SDS011;2297;51.442;6.996;2023-12-29T06:36:10;9.40;;;1.75;;
4569;SDS011;2297;51.442;6.996;2023-12-29T06:38:38;7.53;;;1.70;;
4569;SDS011;2297;51.442;6.996;2023-12-29T06:41:05;6.70;;;2.10;;
4569;SDS011;2297;51.442;6.996;2023-12-29T06:43:31;5.53;;;1.80;;
4569;SDS011;2297;51.442;6.996;2023-12-29T06:45:58;7.78;;;1.65;;
4569;SDS011;2297;51.442;6.996;2023-12-29T06:48:25;5.90;;;1.95;;
4569;SDS011;2297;51.442;6.996;2023-12-29T06:50:52;7.78;;;2.00;;
4569;SDS011;2297;51.442;6.996;2023-12-29T06:53:19;6.63;;;1.80;;
4569;SDS011;2297;51.442;6.996;2023-12-29T06:55:47;7.88;;;2.00;;
4569;SDS011;2297;51.442;6.996;2023-12-29T06:58:13;5.00;;;1.77;;
4569;SDS011;2297;51.442;6.996;2023-12-29T07:00:40;8.90;;;2.00;;
4569;SDS011;2297;51.442;6.996;2023-12-29T07:03:07;5.35;;;1.75;;
4569;SDS011;2297;51.442;6.996;2023-12-29T07:05:33;9.32;;;2.17;;
4569;SDS011;2297;51.442;6.996;2023-12-29T07:08:00;7.57;;;1.58;;
4569;SDS011;2297;51.442;6.996;2023-12-29T07:10:27;9.57;;;2.15;;
4569;SDS011;2297;51.442;6.996;2023-12-29T07:12:55;4.95;;;2.08;;
4569;SDS011;2297;51.442;6.996;2023-12-29T07:15:22;9.45;;;2.80;;
4569;SDS011;2297;51.442;6.996;2023-12-29T07:17:48;8.57;;;1.83;;
4569;SDS011;2297;51.442;6.996;2023-12-29T07:20:15;7.00;;;1.60;;
4569;SDS011;2297;51.442;6.996;2023-12-29T07:22:44;6.38;;;2.17;;
4569;SDS011;2297;51.442;6.996;2023-12-29T07:25:11;12.32;;;2.47;;
4569;SDS011;2297;51.442;6.996;2023-12-29T07:27:38;8.07;;;1.98;;
4569;SDS011;2297;51.442;6.996;2023-12-29T07:30:07;5.80;;;2.03;;
4569;SDS011;2297;51.442;6.996;2023-12-29T07:32:34;5.82;;;2.00;;
4569;SDS011;2297;51.442;6.996;2023-12-29T07:35:01;9.13;;;1.73;;
4569;SDS011;2297;51.442;6.996;2023-12-29T07:37:28;8.90;;;1.90;;
4569;SDS011;2297;51.442;6.996;2023-12-29T07:39:55;9.23;;;1.80;;
4569;SDS011;2297;51.442;6.996;2023-12-29T07:42:21;7.80;;;1.90;;
4569;SDS011;2297;51.442;6.996;2023-12-29T07:44:48;8.77;;;1.90;;
4569;SDS011;2297;51.442;6.996;2023-12-29T07:47:17;6.90;;;2.10;;
4569;SDS011;2297;51.442;6.996;2023-12-29T07:49:44;9.93;;;2.85;;
4569;SDS011;2297;51.442;6.996;2023-12-29T07:52:11;5.70;;;2.13;;
4569;SDS011;2297;51.442;6.996;2023-12-29T07:54:37;12.45;;;3.13;;
4569;SDS011;2297;51.442;6.996;2023-12-29T07:57:04;6.22;;;2.30;;
4569;SDS011;2297;51.442;6.996;2023-12-29T07:59:31;8.32;;;2.28;;
4569;SDS011;2297;51.442;6.996;2023-12-29T08:01:57;7.93;;;1.80;;
4569;SDS011;2297;51.442;6.996;2023-12-29T08:04:25;7.97;;;2.08;;
4569;SDS011;2297;51.442;6.996;2023-12-29T08:06:52;7.13;;;1.83;;
4569;SDS011;2297;51.442;6.996;2023-12-29T08:09:18;6.53;;;1.45;;
4569;SDS011;2297;51.442;6.996;2023-12-29T08:11:46;9.18;;;2.60;;
4569;SDS011;2297;51.442;6.996;2023-12-29T08:14:13;8.32;;;1.92;;
4569;SDS011;2297;51.442;6.996;2023-12-29T08:16:40;9.35;;;1.73;;
4569;SDS011;2297;51.442;6.996;2023-12-29T08:19:07;12.85;;;2.08;;
4569;SDS011;2297;51.442;6.996;2023-12-29T08:21:36;8.18;;;1.67;;
4569;SDS011;2297;51.442;6.996;2023-12-29T08:24:03;6.20;;;2.00;;
4569;SDS011;2297;51.442;6.996;2023-12-29T08:26:30;5.30;;;1.80;;
4569;SDS011;2297;51.442;6.996;2023-12-29T08:28:56;7.70;;;1.73;;
4569;SDS011;2297;51.442;6.996;2023-12-29T08:31:23;11.32;;;2.30;;
4569;SDS011;2297;51.442;6.996;2023-12-29T08:33:51;6.28;;;1.60;;
4569;SDS011;2297;51.442;6.996;2023-12-29T08:36:18;10.15;;;1.55;;
4569;SDS011;2297;51.442;6.996;2023-12-29T08:38:47;7.95;;;1.75;;
4569;SDS011;2297;51.442;6.996;2023-12-29T08:41:14;6.03;;;1.83;;
4569;SDS011;2297;51.442;6.996;2023-12-29T08:43:40;8.30;;;1.67;;
4569;SDS011;2297;51.442;6.996;2023-12-29T08:46:07;8.10;;;1.70;;
4569;SDS011;2297;51.442;6.996;2023-12-29T08:48:33;3.83;;;1.60;;
4569;SDS011;2297;51.442;6.996;2023-12-29T08:51:00;6.75;;;2.80;;
4569;SDS011;2297;51.442;6.996;2023-12-29T08:53:27;4.10;;;1.50;;
4569;SDS011;2297;51.442;6.996;2023-12-29T08:55:57;6.00;;;1.30;;
4569;SDS011;2297;51.442;6.996;2023-12-29T08:58:24;3.72;;;1.23;;
4569;SDS011;2297;51.442;6.996;2023-12-29T09:00:51;5.50;;;1.63;;
4569;SDS011;2297;51.442;6.996;2023-12-29T09:03:17;3.15;;;1.40;;
4569;SDS011;2297;51.442;6.996;2023-12-29T09:05:44;3.95;;;1.25;;
4569;SDS011;2297;51.442;6.996;2023-12-29T09:08:11;3.55;;;1.27;;
4569;SDS011;2297;51.442;6.996;2023-12-29T09:10:37;7.15;;;1.38;;
4569;SDS011;2297;51.442;6.996;2023-12-29T09:13:08;4.85;;;1.60;;
4569;SDS011;2297;51.442;6.996;2023-12-29T09:15:35;3.35;;;1.30;;
4569;SDS011;2297;51.442;6.996;2023-12-29T09:18:02;3.90;;;1.45;;
4569;SDS011;2297;51.442;6.996;2023-12-29T09:20:29;3.42;;;1.33;;
4569;SDS011;2297;51.442;6.996;2023-12-29T09:22:56;3.30;;;1.00;;
4569;SDS011;2297;51.442;6.996;2023-12-29T09:25:23;2.95;;;1.10;;
4569;SDS011;2297;51.442;6.996;2023-12-29T09:27:49;6.88;;;2.00;;
4569;SDS011;2297;51.442;6.996;2023-12-29T09:30:18;0.88;;;0.80;;
4569;SDS011;2297;51.442;6.996;2023-12-29T09:32:45;2.58;;;1.20;;
4569;SDS011;2297;51.442;6.996;2023-12-29T09:35:12;3.08;;;1.10;;
4569;SDS011;2297;51.442;6.996;2023-12-29T09:37:38;2.17;;;0.93;;
4569;SDS011;2297;51.442;6.996;2023-12-29T09:40:06;1.52;;;0.70;;
4569;SDS011;2297;51.442;6.996;2023-12-29T09:42:34;1.42;;;1.10;;
4569;SDS011;2297;51.442;6.996;2023-12-29T09:45:02;2.42;;;0.77;;
4569;SDS011;2297;51.442;6.996;2023-12-29T09:47:35;0.80;;;0.80;;
4569;SDS011;2297;51.442;6.996;2023-12-29T09:50:05;0.80;;;0.70;;
4569;SDS011;2297;51.442;6.996;2023-12-29T09:52:33;2.70;;;0.90;;
4569;SDS011;2297;51.442;6.996;2023-12-29T09:55:01;1.40;;;1.00;;
4569;SDS011;2297;51.442;6.996;2023-12-29T09:57:29;5.60;;;1.15;;
4569;SDS011;2297;51.442;6.996;2023-12-29T09:59:56;1.35;;;0.90;;
4569;SDS011;2297;51.442;6.996;2023-12-29T10:02:24;2.75;;;0.90;;
4569;SDS011;2297;51.442;6.996;2023-12-29T10:04:52;3.83;;;0.90;;
4569;SDS011;2297;51.442;6.996;2023-12-29T10:07:20;2.55;;;0.85;;
4569;SDS011;2297;51.442;6.996;2023-12-29T10:09:51;1.00;;;0.80;;
4569;SDS011;2297;51.442;6.996;2023-12-29T10:12:20;4.38;;;1.20;;
4569;SDS011;2297;51.442;6.996;2023-12-29T10:14:49;3.00;;;0.80;;
4569;SDS011;2297;51.442;6.996;2023-12-29T10:17:28;4.20;;;1.23;;
4569;SDS011;2297;51.442;6.996;2023-12-29T10:20:11;2.30;;;0.95;;
4569;SDS011;2297;51.442;6.996;2023-12-29T10:22:45;1.48;;;0.90;;
4569;SDS011;2297;51.442;6.996;2023-12-29T10:25:17;2.00;;;0.70;;
4569;SDS011;2297;51.442;6.996;2023-12-29T10:27:45;1.05;;;0.60;;
4569;SDS011;2297;51.442;6.996;2023-12-29T10:30:12;1.38;;;0.75;;
4569;SDS011;2297;51.442;6.996;2023-12-29T10:32:39;2.25;;;1.05;;
4569;SDS011;2297;51.442;6.996;2023-12-29T10:35:10;2.03;;;1.10;;
4569;SDS011;2297;51.442;6.996;2023-12-29T10:37:37;1.40;;;1.20;;
4569;SDS011;2297;51.442;6.996;2023-12-29T10:40:05;1.30;;;1.15;;
4569;SDS011;2297;51.442;6.996;2023-12-29T10:42:32;1.58;;;1.25;;
4569;SDS011;2297;51.442;6.996;2023-12-29T10:45:05;3.53;;;1.23;;
4569;SDS011;2297;51.442;6.996;2023-12-29T10:47:32;2.53;;;1.42;;
4569;SDS011;2297;51.442;6.996;2023-12-29T10:50:00;3.55;;;1.40;;
4569;SDS011;2297;51.442;6.996;2023-12-29T10:52:30;1.58;;;1.25;;
4569;SDS011;2297;51.442;6.996;2023-12-29T10:55:05;4.82;;;1.67;;
4569;SDS011;2297;51.442;6.996;2023-12-29T10:57:33;3.97;;;1.27;;
4569;SDS011;2297;51.442;6.996;2023-12-29T11:00:00;4.43;;;1.40;;
4569;SDS011;2297;51.442;6.996;2023-12-29T11:02:26;3.22;;;1.33;;
4569;SDS011;2297;51.442;6.996;2023-12-29T11:05:01;4.47;;;1.35;;
4569;SDS011;2297;51.442;6.996;2023-12-29T11:07:36;4.88;;;1.48;;
4569;SDS011;2297;51.442;6.996;2023-12-29T11:10:04;4.53;;;1.50;;
4569;SDS011;2297;51.442;6.996;2023-12-29T11:12:33;3.00;;;1.33;;
4569;SDS011;2297;51.442;6.996;2023-12-29T11:15:01;2.50;;;1.38;;
4569;SDS011;2297;51.442;6.996;2023-12-29T11:17:29;5.22;;;1.60;;
4569;SDS011;2297;51.442;6.996;2023-12-29T11:19:58;3.55;;;1.38;;
4569;SDS011;2297;51.442;6.996;2023-12-29T11:22:27;4.28;;;1.38;;
4569;SDS011;2297;51.442;6.996;2023-12-29T11:24:56;1.70;;;1.30;;
4569;SDS011;2297;51.442;6.996;2023-12-29T11:27:25;4.70;;;1.50;;
4569;SDS011;2297;51.442;6.996;2023-12-29T11:29:55;3.33;;;1.60;;
4569;SDS011;2297;51.442;6.996;2023-12-29T11:32:23;5.97;;;1.40;;
4569;SDS011;2297;51.442;6.996;2023-12-29T11:34:59;2.47;;;1.40;;
4569;SDS011;2297;51.442;6.996;2023-12-29T11:37:37;6.00;;;1.75;;
4569;SDS011;2297;51.442;6.996;2023-12-29T11:40:26;6.13;;;2.40;;
4569;SDS011;2297;51.442;6.996;2023-12-29T11:42:59;13.68;;;3.35;;
4569;SDS011;2297;51.442;6.996;2023-12-29T11:45:29;8.77;;;2.40;;
4569;SDS011;2297;51.442;6.996;2023-12-29T11:47:59;5.45;;;1.80;;
4569;SDS011;2297;51.442;6.996;2023-12-29T11:50:28;5.38;;;2.00;;
4569;SDS011;2297;51.442;6.996;2023-12-29T11:52:56;7.05;;;1.73;;
4569;SDS011;2297;51.442;6.996;2023-12-29T11:55:29;4.20;;;1.50;;
4569;SDS011;2297;51.442;6.996;2023-12-29T11:57:57;4.22;;;1.50;;
4569;SDS011;2297;51.442;6.996;2023-12-29T12:00:40;4.00;;;1.50;;
4569;SDS011;2297;51.442;6.996;2023-12-29T12:03:15;2.58;;;1.48;;
4569;SDS011;2297;51.442;6.996;2023-12-29T12:05:46;4.40;;;1.50;;
4569;SDS011;2297;51.442;6.996;2023-12-29T12:08:27;5.60;;;1.60;;
4569;SDS011;2297;51.442;6.996;2023-12-29T12:14:01;5.45;;;1.50;;
4569;SDS011;2297;51.442;6.996;2023-12-29T12:19:19;3.33;;;1.60;;
4569;SDS011;2297;51.442;6.996;2023-12-29T12:21:47;4.63;;;1.42;;
4569;SDS011;2297;51.442;6.996;2023-12-29T12:24:15;5.38;;;1.83;;
4569;SDS011;2297;51.442;6.996;2023-12-29T12:26:44;3.45;;;1.70;;
4569;SDS011;2297;51.442;6.996;2023-12-29T12:29:12;4.72;;;1.75;;
4569;SDS011;2297;51.442;6.996;2023-12-29T12:31:50;3.50;;;1.73;;
4569;SDS011;2297;51.442;6.996;2023-12-29T12:34:18;2.70;;;1.80;;
4569;SDS011;2297;51.442;6.996;2023-12-29T12:36:47;4.47;;;1.83;;
4569;SDS011;2297;51.442;6.996;2023-12-29T12:39:14;7.57;;;2.20;;
4569;SDS011;2297;51.442;6.996;2023-12-29T12:41:41;6.00;;;1.80;;
4569;SDS011;2297;51.442;6.996;2023-12-29T12:44:10;6.72;;;2.20;;
4569;SDS011;2297;51.442;6.996;2023-12-29T12:46:39;1.40;;;1.30;;
4569;SDS011;2297;51.442;6.996;2023-12-29T12:49:09;2.60;;;1.60;;
4569;SDS011;2297;51.442;6.996;2023-12-29T12:54:58;1.65;;;1.25;;
4569;SDS011;2297;51.442;6.996;2023-12-29T12:57:25;3.00;;;1.40;;
4569;SDS011;2297;51.442;6.996;2023-12-29T12:59:53;1.70;;;1.30;;
4569;SDS011;2297;51.442;6.996;2023-12-29T13:02:20;2.20;;;1.35;;
4569;SDS011;2297;51.442;6.996;2023-12-29T13:04:47;4.65;;;1.50;;
4569;SDS011;2297;51.442;6.996;2023-12-29T13:07:16;4.10;;;1.52;;
4569;SDS011;2297;51.442;6.996;2023-12-29T13:09:46;4.97;;;1.98;;
4569;SDS011;2297;51.442;6.996;2023-12-29T13:12:15;5.70;;;2.35;;
4569;SDS011;2297;51.442;6.996;2023-12-29T13:14:42;1.42;;;1.33;;
4569;SDS011;2297;51.442;6.996;2023-12-29T13:17:12;2.67;;;1.40;;
4569;SDS011;2297;51.442;6.996;2023-12-29T13:19:40;2.90;;;1.33;;
4569;SDS011;2297;51.442;6.996;2023-12-29T13:22:09;3.20;;;1.50;;
4569;SDS011;2297;51.442;6.996;2023-12-29T13:24:42;4.47;;;1.58;;
4569;SDS011;2297;51.442;6.996;2023-12-29T13:27:09;5.40;;;1.92;;
4569;SDS011;2297;51.442;6.996;2023-12-29T13:29:36;4.07;;;1.63;;
4569;SDS011;2297;51.442;6.996;2023-12-29T13:32:05;2.33;;;1.35;;
4569;SDS011;2297;51.442;6.996;2023-12-29T13:34:39;3.28;;;1.60;;
4569;SDS011;2297;51.442;6.996;2023-12-29T13:37:30;2.33;;;1.40;;
4569;SDS011;2297;51.442;6.996;2023-12-29T13:40:01;4.57;;;1.83;;
4569;SDS011;2297;51.442;6.996;2023-12-29T13:42:36;2.95;;;1.52;;
4569;SDS011;2297;51.442;6.996;2023-12-29T13:45:05;3.38;;;1.75;;
4569;SDS011;2297;51.442;6.996;2023-12-29T13:47:34;3.92;;;1.55;;
4569;SDS011;2297;51.442;6.996;2023-12-29T13:50:04;3.95;;;1.83;;
4569;SDS011;2297;51.442;6.996;2023-12-29T13:52:35;4.05;;;1.90;;
4569;SDS011;2297;51.442;6.996;2023-12-29T13:55:02;2.25;;;1.73;;
4569;SDS011;2297;51.442;6.996;2023-12-29T13:57:39;5.22;;;1.80;;
4569;SDS011;2297;51.442;6.996;2023-12-29T14:00:16;6.90;;;1.98;;
4569;SDS011;2297;51.442;6.996;2023-12-29T14:02:43;2.72;;;1.77;;
4569;SDS011;2297;51.442;6.996;2023-12-29T14:05:16;9.25;;;1.98;;
4569;SDS011;2297;51.442;6.996;2023-12-29T14:07:46;3.40;;;1.60;;
4569;SDS011;2297;51.442;6.996;2023-12-29T14:10:18;3.03;;;1.75;;
4569;SDS011;2297;51.442;6.996;2023-12-29T14:12:44;1.83;;;1.40;;
4569;SDS011;2297;51.442;6.996;2023-12-29T14:15:11;3.60;;;1.92;;
4569;SDS011;2297;51.442;6.996;2023-12-29T14:17:38;6.05;;;1.70;;
4569;SDS011;2297;51.442;6.996;2023-12-29T14:20:05;5.63;;;2.00;;
4569;SDS011;2297;51.442;6.996;2023-12-29T14:22:34;5.18;;;1.67;;
4569;SDS011;2297;51.442;6.996;2023-12-29T14:25:01;7.53;;;1.95;;
4569;SDS011;2297;51.442;6.996;2023-12-29T14:27:28;4.43;;;1.73;;
4569;SDS011;2297;51.442;6.996;2023-12-29T14:29:55;6.45;;;1.52;;
4569;SDS011;2297;51.442;6.996;2023-12-29T14:32:22;6.82;;;2.30;;
4569;SDS011;2297;51.442;6.996;2023-12-29T14:34:49;3.70;;;1.58;;
4569;SDS011;2297;51.442;6.996;2023-12-29T14:37:18;5.78;;;2.03;;
4569;SDS011;2297;51.442;6.996;2023-12-29T14:39:48;5.30;;;2.10;;
4569;SDS011;2297;51.442;6.996;2023-12-29T14:42:15;4.72;;;1.70;;
4569;SDS011;2297;51.442;6.996;2023-12-29T14:44:41;3.47;;;1.60;;
4569;SDS011;2297;51.442;6.996;2023-12-29T14:47:08;4.28;;;1.58;;
4569;SDS011;2297;51.442;6.996;2023-12-29T14:49:34;5.72;;;1.80;;
4569;SDS011;2297;51.442;6.996;2023-12-29T14:52:01;4.43;;;1.30;;
4569;SDS011;2297;51.442;6.996;2023-12-29T14:54:28;4.68;;;1.27;;
4569;SDS011;2297;51.442;6.996;2023-12-29T14:56:56;6.90;;;3.50;;
4569;SDS011;2297;51.442;6.996;2023-12-29T14:59:22;3.83;;;1.65;;
4569;SDS011;2297;51.442;6.996;2023-12-29T15:01:49;1.58;;;1.20;;
4569;SDS011;2297;51.442;6.996;2023-12-29T15:04:16;1.58;;;1.10;;
4569;SDS011;2297;51.442;6.996;2023-12-29T15:06:42;2.97;;;1.20;;
4569;SDS011;2297;51.442;6.996;2023-12-29T15:09:21;1.58;;;1.10;;
4569;SDS011;2297;51.442;6.996;2023-12-29T15:11:48;1.95;;;1.10;;
4569;SDS011;2297;51.442;6.996;2023-12-29T15:14:19;3.88;;;1.42;;
4569;SDS011;2297;51.442;6.996;2023-12-29T15:16:45;2.70;;;1.00;;
4569;SDS011;2297;51.442;6.996;2023-12-29T15:19:12;3.20;;;1.38;;
4569;SDS011;2297;51.442;6.996;2023-12-29T15:21:39;3.65;;;1.55;;
4569;SDS011;2297;51.442;6.996;2023-12-29T15:24:05;2.80;;;1.08;;
4569;SDS011;2297;51.442;6.996;2023-12-29T15:26:33;2.40;;;1.20;;
4569;SDS011;2297;51.442;6.996;2023-12-29T15:28:59;3.65;;;1.10;;
4569;SDS011;2297;51.442;6.996;2023-12-29T15:31:27;2.65;;;1.25;;
4569;SDS011;2297;51.442;6.996;2023-12-29T15:33:54;4.53;;;1.20;;
4569;SDS011;2297;51.442;6.996;2023-12-29T15:36:20;1.98;;;1.30;;
4569;SDS011;2297;51.442;6.996;2023-12-29T15:38:48;2.97;;;1.20;;